sensor_id;sensor_type;location;lat;lon;timestamp;pressure;altitude;pressure_sealevel;temperature;humidity
61742;BME280;47650;49.848;9.620;2022-10-13T00:00:43;100146.00;;;12.10;73.54
61742;BME280;47650;49.848;9.620;2022-10-13T00:03:10;100128.97;;;12.03;73.22
61742;BME280;47650;49.848;9.620;2022-10-13T00:05:40;100140.41;;;12.13;73.23
61742;BME280;47650;49.848;9.620;2022-10-13T00:08:05;100166.28;;;12.31;72.85
61742;BME280;47650;49.848;9.620;2022-10-13T00:10:35;100107.16;;;11.99;72.65
61742;BME280;47650;49.848;9.620;2022-10-13T00:13:01;100174.38;;;12.19;71.61
61742;BME280;47650;49.848;9.620;2022-10-13T00:15:27;100171.59;;;12.31;72.51
61742;BME280;47650;49.848;9.620;2022-10-13T00:17:52;100158.69;;;12.36;72.94
61742;BME280;47650;49.848;9.620;2022-10-13T00:20:17;100155.34;;;12.34;73.07
61742;BME280;47650;49.848;9.620;2022-10-13T00:22:43;100163.34;;;12.14;72.25
61742;BME280;47650;49.848;9.620;2022-10-13T00:25:08;100149.22;;;12.14;73.21
61742;BME280;47650;49.848;9.620;2022-10-13T00:27:33;100148.66;;;12.20;73.71
61742;BME280;47650;49.848;9.620;2022-10-13T00:30:06;100161.22;;;12.37;73.86
61742;BME280;47650;49.848;9.620;2022-10-13T00:32:34;100160.78;;;12.42;73.61
61742;BME280;47650;49.848;9.620;2022-10-13T00:35:07;100161.19;;;12.47;73.30
61742;BME280;47650;49.848;9.620;2022-10-13T00:37:32;100157.25;;;12.51;73.39
61742;BME280;47650;49.848;9.620;2022-10-13T00:39:57;100153.19;;;12.47;72.34
61742;BME280;47650;49.848;9.620;2022-10-13T00:42:23;100162.28;;;12.54;72.84
61742;BME280;47650;49.848;9.620;2022-10-13T00:45:14;100153.31;;;12.55;72.43
61742;BME280;47650;49.848;9.620;2022-10-13T00:47:46;100155.00;;;12.56;72.30
61742;BME280;47650;49.848;9.620;2022-10-13T00:50:19;100155.00;;;12.56;71.87
61742;BME280;47650;49.848;9.620;2022-10-13T00:52:48;100152.75;;;12.62;71.83
61742;BME280;47650;49.848;9.620;2022-10-13T00:55:17;100142.94;;;12.62;71.81
61742;BME280;47650;49.848;9.620;2022-10-13T00:57:52;100136.53;;;12.55;72.00
61742;BME280;47650;49.848;9.620;2022-10-13T01:00:28;100144.63;;;12.63;71.93
61742;BME280;47650;49.848;9.620;2022-10-13T01:02:54;100117.25;;;12.43;71.51
61742;BME280;47650;49.848;9.620;2022-10-13T01:05:21;100120.31;;;12.48;71.53
61742;BME280;47650;49.848;9.620;2022-10-13T01:07:47;100154.97;;;12.66;71.82
61742;BME280;47650;49.848;9.620;2022-10-13T01:15:41;100105.44;;;12.55;71.96
61742;BME280;47650;49.848;9.620;2022-10-13T01:21:03;100055.72;;;12.28;71.03
61742;BME280;47650;49.848;9.620;2022-10-13T01:27:07;100139.47;;;12.89;70.18
61742;BME280;47650;49.848;9.620;2022-10-13T01:35:17;100138.19;;;12.93;70.61
61742;BME280;47650;49.848;9.620;2022-10-13T01:40:26;100142.53;;;12.94;70.43
61742;BME280;47650;49.848;9.620;2022-10-13T01:43:17;100111.78;;;12.82;70.23
61742;BME280;47650;49.848;9.620;2022-10-13T01:45:49;100133.66;;;13.04;70.15
61742;BME280;47650;49.848;9.620;2022-10-13T01:48:23;100118.25;;;12.97;70.09
61742;BME280;47650;49.848;9.620;2022-10-13T01:50:51;100055.31;;;12.60;69.64
61742;BME280;47650;49.848;9.620;2022-10-13T01:53:18;100091.34;;;12.83;69.85
61742;BME280;47650;49.848;9.620;2022-10-13T01:55:55;100126.50;;;13.04;69.89
61742;BME280;47650;49.848;9.620;2022-10-13T01:58:26;100127.34;;;13.05;70.03
61742;BME280;47650;49.848;9.620;2022-10-13T02:01:08;100120.19;;;13.05;69.94
61742;BME280;47650;49.848;9.620;2022-10-13T02:03:51;100121.72;;;13.08;70.12
61742;BME280;47650;49.848;9.620;2022-10-13T02:06:26;100078.31;;;12.79;70.19
61742;BME280;47650;49.848;9.620;2022-10-13T02:09:09;100123.41;;;13.09;70.31
61742;BME280;47650;49.848;9.620;2022-10-13T02:11:38;100120.50;;;13.02;70.35
61742;BME280;47650;49.848;9.620;2022-10-13T02:14:28;100114.34;;;13.02;70.15
61742;BME280;47650;49.848;9.620;2022-10-13T02:17:04;100117.41;;;13.07;70.04
61742;BME280;47650;49.848;9.620;2022-10-13T02:19:32;100108.00;;;13.03;70.10
61742;BME280;47650;49.848;9.620;2022-10-13T02:21:58;100120.69;;;13.19;69.79
61742;BME280;47650;49.848;9.620;2022-10-13T02:24:25;100099.69;;;13.15;69.81
61742;BME280;47650;49.848;9.620;2022-10-13T02:26:50;100114.06;;;13.23;69.36
61742;BME280;47650;49.848;9.620;2022-10-13T02:29:16;100085.31;;;13.08;69.72
61742;BME280;47650;49.848;9.620;2022-10-13T02:31:43;100108.59;;;13.24;69.85
61742;BME280;47650;49.848;9.620;2022-10-13T02:34:09;100082.50;;;13.10;69.51
61742;BME280;47650;49.848;9.620;2022-10-13T02:36:36;100113.78;;;13.26;69.45
61742;BME280;47650;49.848;9.620;2022-10-13T02:39:05;100120.47;;;13.30;70.15
61742;BME280;47650;49.848;9.620;2022-10-13T02:41:30;100072.44;;;13.04;70.24
61742;BME280;47650;49.848;9.620;2022-10-13T02:43:57;100095.63;;;13.11;70.22
61742;BME280;47650;49.848;9.620;2022-10-13T02:46:22;100099.69;;;13.15;70.72
61742;BME280;47650;49.848;9.620;2022-10-13T02:48:48;100117.84;;;13.20;70.75
61742;BME280;47650;49.848;9.620;2022-10-13T02:51:19;100112.84;;;13.17;70.87
61742;BME280;47650;49.848;9.620;2022-10-13T02:53:44;100090.44;;;12.92;71.15
61742;BME280;47650;49.848;9.620;2022-10-13T02:56:10;100108.47;;;12.98;71.45
61742;BME280;47650;49.848;9.620;2022-10-13T02:58:36;100079.47;;;12.77;71.87
61742;BME280;47650;49.848;9.620;2022-10-13T03:01:06;100107.69;;;12.88;71.91
61742;BME280;47650;49.848;9.620;2022-10-13T03:03:31;100075.69;;;12.70;71.81
61742;BME280;47650;49.848;9.620;2022-10-13T03:05:57;100098.56;;;12.90;72.14
61742;BME280;47650;49.848;9.620;2022-10-13T03:08:22;100095.91;;;12.90;72.34
61742;BME280;47650;49.848;9.620;2022-10-13T03:10:47;100108.00;;;13.03;72.08
61742;BME280;47650;49.848;9.620;2022-10-13T03:13:13;100103.00;;;13.00;71.91
61742;BME280;47650;49.848;9.620;2022-10-13T03:15:38;100098.81;;;12.97;72.12
61742;BME280;47650;49.848;9.620;2022-10-13T03:18:03;100084.28;;;12.91;72.42
61742;BME280;47650;49.848;9.620;2022-10-13T03:20:28;100076.69;;;12.96;72.09
61742;BME280;47650;49.848;9.620;2022-10-13T03:22:54;100081.47;;;12.93;72.20
61742;BME280;47650;49.848;9.620;2022-10-13T03:25:19;100087.34;;;12.96;72.18
61742;BME280;47650;49.848;9.620;2022-10-13T03:27:46;100086.19;;;12.99;72.41
61742;BME280;47650;49.848;9.620;2022-10-13T03:30:11;100082.41;;;13.02;71.90
61742;BME280;47650;49.848;9.620;2022-10-13T03:32:37;100083.13;;;12.94;72.12
61742;BME280;47650;49.848;9.620;2022-10-13T03:35:02;100080.53;;;12.56;72.99
61742;BME280;47650;49.848;9.620;2022-10-13T03:37:29;100082.81;;;12.79;72.97
61742;BME280;47650;49.848;9.620;2022-10-13T03:39:54;100057.59;;;12.46;72.82
61742;BME280;47650;49.848;9.620;2022-10-13T03:42:21;100079.06;;;12.72;73.29
61742;BME280;47650;49.848;9.620;2022-10-13T03:44:58;100083.78;;;12.78;73.67
61742;BME280;47650;49.848;9.620;2022-10-13T03:47:23;100084.56;;;12.88;73.56
61742;BME280;47650;49.848;9.620;2022-10-13T03:49:49;100082.88;;;12.87;73.30
61742;BME280;47650;49.848;9.620;2022-10-13T03:52:18;100083.75;;;12.88;72.05
61742;BME280;47650;49.848;9.620;2022-10-13T03:54:44;100082.44;;;12.92;72.40
61742;BME280;47650;49.848;9.620;2022-10-13T03:57:10;100090.78;;;12.79;72.44
61742;BME280;47650;49.848;9.620;2022-10-13T03:59:35;100092.19;;;12.73;73.63
61742;BME280;47650;49.848;9.620;2022-10-13T04:02:07;100069.00;;;12.66;74.16
61742;BME280;47650;49.848;9.620;2022-10-13T04:04:33;100090.78;;;12.79;73.80
61742;BME280;47650;49.848;9.620;2022-10-13T04:06:59;100079.25;;;12.88;74.03
61742;BME280;47650;49.848;9.620;2022-10-13T04:09:25;100082.53;;;13.00;74.23
61742;BME280;47650;49.848;9.620;2022-10-13T04:11:52;100093.44;;;13.07;73.97
61742;BME280;47650;49.848;9.620;2022-10-13T04:14:24;100086.72;;;12.75;73.81
61742;BME280;47650;49.848;9.620;2022-10-13T04:16:51;100087.59;;;12.75;73.99
61742;BME280;47650;49.848;9.620;2022-10-13T04:19:17;100089.06;;;12.88;74.12
61742;BME280;47650;49.848;9.620;2022-10-13T04:21:44;100050.19;;;12.77;74.61
61742;BME280;47650;49.848;9.620;2022-10-13T04:24:14;100075.78;;;13.06;74.78
61742;BME280;47650;49.848;9.620;2022-10-13T04:26:47;100081.19;;;13.14;74.52
61742;BME280;47650;49.848;9.620;2022-10-13T04:29:12;100088.28;;;13.23;74.20
61742;BME280;47650;49.848;9.620;2022-10-13T04:31:38;100086.00;;;13.28;73.93
61742;BME280;47650;49.848;9.620;2022-10-13T04:34:04;100046.88;;;13.11;73.58
61742;BME280;47650;49.848;9.620;2022-10-13T04:36:29;100067.34;;;13.28;73.39
61742;BME280;47650;49.848;9.620;2022-10-13T04:38:57;100075.06;;;13.31;72.79
61742;BME280;47650;49.848;9.620;2022-10-13T04:41:22;100071.81;;;13.38;72.85
61742;BME280;47650;49.848;9.620;2022-10-13T04:43:51;100074.16;;;13.41;72.36
61742;BME280;47650;49.848;9.620;2022-10-13T04:46:22;100075.53;;;13.45;72.52
61742;BME280;47650;49.848;9.620;2022-10-13T04:48:49;100054.03;;;13.28;71.62
61742;BME280;47650;49.848;9.620;2022-10-13T04:51:18;100073.56;;;13.47;71.96
61742;BME280;47650;49.848;9.620;2022-10-13T04:53:46;100054.28;;;13.17;70.94
61742;BME280;47650;49.848;9.620;2022-10-13T04:56:14;100094.13;;;12.81;72.14
61742;BME280;47650;49.848;9.620;2022-10-13T04:58:46;100085.06;;;13.02;73.03
61742;BME280;47650;49.848;9.620;2022-10-13T05:01:14;100046.00;;;12.92;73.37
61742;BME280;47650;49.848;9.620;2022-10-13T05:03:40;100060.34;;;13.09;73.89
61742;BME280;47650;49.848;9.620;2022-10-13T05:06:12;100074.81;;;13.25;73.83
61742;BME280;47650;49.848;9.620;2022-10-13T05:08:38;100083.81;;;13.24;72.63
61742;BME280;47650;49.848;9.620;2022-10-13T05:11:03;100085.44;;;13.34;73.17
61742;BME280;47650;49.848;9.620;2022-10-13T05:13:30;100072.78;;;13.37;73.17
61742;BME280;47650;49.848;9.620;2022-10-13T05:15:57;100084.59;;;13.52;73.18
61742;BME280;47650;49.848;9.620;2022-10-13T05:18:22;100087.94;;;13.54;72.95
61742;BME280;47650;49.848;9.620;2022-10-13T05:20:48;100091.66;;;13.61;72.66
61742;BME280;47650;49.848;9.620;2022-10-13T05:23:14;100080.78;;;13.54;72.31
61742;BME280;47650;49.848;9.620;2022-10-13T05:25:39;100083.00;;;13.59;72.03
61742;BME280;47650;49.848;9.620;2022-10-13T05:28:07;100090.19;;;13.67;71.79
61742;BME280;47650;49.848;9.620;2022-10-13T05:30:34;100086.47;;;13.60;70.53
61742;BME280;47650;49.848;9.620;2022-10-13T05:33:03;100094.69;;;13.66;71.11
61742;BME280;47650;49.848;9.620;2022-10-13T05:35:29;100091.59;;;13.71;71.58
61742;BME280;47650;49.848;9.620;2022-10-13T05:37:54;100084.28;;;13.73;71.50
61742;BME280;47650;49.848;9.620;2022-10-13T05:40:21;100088.09;;;13.70;71.28
61742;BME280;47650;49.848;9.620;2022-10-13T05:42:48;100086.09;;;13.72;70.49
61742;BME280;47650;49.848;9.620;2022-10-13T05:45:15;100085.97;;;13.74;70.89
61742;BME280;47650;49.848;9.620;2022-10-13T05:47:41;100081.97;;;13.78;70.87
61742;BME280;47650;49.848;9.620;2022-10-13T05:50:07;100052.69;;;13.60;70.65
61742;BME280;47650;49.848;9.620;2022-10-13T05:52:32;100063.03;;;13.63;70.27
61742;BME280;47650;49.848;9.620;2022-10-13T05:55:02;100071.81;;;13.56;70.55
61742;BME280;47650;49.848;9.620;2022-10-13T05:57:34;100067.22;;;13.66;71.07
61742;BME280;47650;49.848;9.620;2022-10-13T06:02:34;100067.31;;;13.56;70.40
61742;BME280;47650;49.848;9.620;2022-10-13T06:05:03;100067.06;;;13.67;70.96
61742;BME280;47650;49.848;9.620;2022-10-13T06:07:32;100062.81;;;13.75;70.99
61742;BME280;47650;49.848;9.620;2022-10-13T06:09:57;100064.22;;;13.87;71.22
61742;BME280;47650;49.848;9.620;2022-10-13T06:12:23;100066.44;;;13.91;70.46
61742;BME280;47650;49.848;9.620;2022-10-13T06:14:48;100063.25;;;13.70;70.15
61742;BME280;47650;49.848;9.620;2022-10-13T06:17:14;100047.03;;;13.63;70.59
61742;BME280;47650;49.848;9.620;2022-10-13T06:19:39;100064.63;;;13.74;71.86
61742;BME280;47650;49.848;9.620;2022-10-13T06:22:04;100063.09;;;13.71;71.35
61742;BME280;47650;49.848;9.620;2022-10-13T06:24:30;100062.88;;;13.65;71.35
61742;BME280;47650;49.848;9.620;2022-10-13T06:26:56;100044.84;;;13.23;71.90
61742;BME280;47650;49.848;9.620;2022-10-13T06:29:22;100056.59;;;12.84;73.89
61742;BME280;47650;49.848;9.620;2022-10-13T06:31:47;100067.53;;;12.81;74.67
61742;BME280;47650;49.848;9.620;2022-10-13T06:34:13;100056.63;;;13.20;74.77
61742;BME280;47650;49.848;9.620;2022-10-13T06:36:40;100054.84;;;13.39;74.65
61742;BME280;47650;49.848;9.620;2022-10-13T06:39:07;100058.06;;;12.69;75.34
61742;BME280;47650;49.848;9.620;2022-10-13T06:41:33;100063.72;;;12.56;77.11
61742;BME280;47650;49.848;9.620;2022-10-13T06:43:59;100061.00;;;12.38;78.53
61742;BME280;47650;49.848;9.620;2022-10-13T06:46:24;100054.34;;;13.07;77.64
61742;BME280;47650;49.848;9.620;2022-10-13T06:48:51;100060.91;;;13.49;77.21
61742;BME280;47650;49.848;9.620;2022-10-13T06:51:22;100060.09;;;13.03;74.91
61742;BME280;47650;49.848;9.620;2022-10-13T06:53:49;100059.06;;;13.13;74.74
61742;BME280;47650;49.848;9.620;2022-10-13T06:56:15;100052.66;;;13.78;74.90
61742;BME280;47650;49.848;9.620;2022-10-13T06:58:40;100019.72;;;13.79;73.72
61742;BME280;47650;49.848;9.620;2022-10-13T07:01:06;100055.66;;;13.57;72.97
61742;BME280;47650;49.848;9.620;2022-10-13T07:03:31;100057.63;;;13.99;72.60
61742;BME280;47650;49.848;9.620;2022-10-13T07:06:04;100068.63;;;13.52;72.66
61742;BME280;47650;49.848;9.620;2022-10-13T07:08:33;100061.09;;;14.18;72.87
61742;BME280;47650;49.848;9.620;2022-10-13T07:11:04;100013.69;;;14.38;72.57
61742;BME280;47650;49.848;9.620;2022-10-13T07:13:30;100055.66;;;15.04;72.11
61742;BME280;47650;49.848;9.620;2022-10-13T07:15:56;100043.66;;;15.17;69.85
61742;BME280;47650;49.848;9.620;2022-10-13T07:18:21;100017.78;;;15.26;68.63
61742;BME280;47650;49.848;9.620;2022-10-13T07:20:46;100049.53;;;15.61;68.01
61742;BME280;47650;49.848;9.620;2022-10-13T07:23:12;100017.88;;;14.40;67.94
61742;BME280;47650;49.848;9.620;2022-10-13T07:25:37;100057.69;;;14.68;68.19
61742;BME280;47650;49.848;9.620;2022-10-13T07:28:02;100068.41;;;14.84;69.77
61742;BME280;47650;49.848;9.620;2022-10-13T07:30:28;100055.34;;;15.16;70.23
61742;BME280;47650;49.848;9.620;2022-10-13T07:32:54;100041.00;;;15.33;70.10
61742;BME280;47650;49.848;9.620;2022-10-13T07:35:19;100001.41;;;15.04;68.21
61742;BME280;47650;49.848;9.620;2022-10-13T07:37:47;100046.91;;;14.78;68.43
61742;BME280;47650;49.848;9.620;2022-10-13T07:40:19;100045.06;;;14.78;68.96
61742;BME280;47650;49.848;9.620;2022-10-13T07:42:44;100033.72;;;14.76;70.08
61742;BME280;47650;49.848;9.620;2022-10-13T07:45:10;100039.63;;;13.93;71.89
61742;BME280;47650;49.848;9.620;2022-10-13T07:47:35;100052.44;;;14.24;71.95
61742;BME280;47650;49.848;9.620;2022-10-13T07:50:00;100048.72;;;14.69;71.18
61742;BME280;47650;49.848;9.620;2022-10-13T07:52:27;100053.75;;;13.67;73.66
61742;BME280;47650;49.848;9.620;2022-10-13T07:54:52;100056.06;;;14.15;73.85
61742;BME280;47650;49.848;9.620;2022-10-13T07:57:19;100009.91;;;14.48;72.57
61742;BME280;47650;49.848;9.620;2022-10-13T07:59:44;100031.81;;;15.19;71.78
61742;BME280;47650;49.848;9.620;2022-10-13T08:02:09;100029.41;;;15.00;68.70
61742;BME280;47650;49.848;9.620;2022-10-13T08:04:35;100034.34;;;15.54;69.19
61742;BME280;47650;49.848;9.620;2022-10-13T08:07:01;100036.84;;;15.80;69.01
61742;BME280;47650;49.848;9.620;2022-10-13T08:09:26;100030.91;;;16.17;68.76
61742;BME280;47650;49.848;9.620;2022-10-13T08:11:52;100034.09;;;16.21;65.99
61742;BME280;47650;49.848;9.620;2022-10-13T08:14:18;100019.72;;;16.22;64.63
61742;BME280;47650;49.848;9.620;2022-10-13T08:16:43;100032.16;;;15.90;64.68
61742;BME280;47650;49.848;9.620;2022-10-13T08:19:18;100030.97;;;16.09;64.89
61742;BME280;47650;49.848;9.620;2022-10-13T08:21:46;100022.25;;;16.55;64.46
61742;BME280;47650;49.848;9.620;2022-10-13T08:24:13;100032.81;;;15.27;67.62
61742;BME280;47650;49.848;9.620;2022-10-13T08:26:39;100014.25;;;16.55;66.28
61742;BME280;47650;49.848;9.620;2022-10-13T08:29:05;99998.88;;;17.12;63.40
61742;BME280;47650;49.848;9.620;2022-10-13T08:31:32;100008.66;;;17.27;61.30
61742;BME280;47650;49.848;9.620;2022-10-13T08:33:57;100007.03;;;17.41;61.91
61742;BME280;47650;49.848;9.620;2022-10-13T08:36:22;100010.34;;;17.43;61.39
61742;BME280;47650;49.848;9.620;2022-10-13T08:38:49;99993.13;;;17.61;60.36
61742;BME280;47650;49.848;9.620;2022-10-13T08:41:22;99997.19;;;17.57;58.75
61742;BME280;47650;49.848;9.620;2022-10-13T08:44:03;99996.00;;;16.82;62.66
61742;BME280;47650;49.848;9.620;2022-10-13T08:46:41;99966.31;;;15.89;64.26
61742;BME280;47650;49.848;9.620;2022-10-13T08:49:10;100012.75;;;15.96;66.13
61742;BME280;47650;49.848;9.620;2022-10-13T08:51:39;100007.63;;;16.74;64.48
61742;BME280;47650;49.848;9.620;2022-10-13T08:54:04;100006.28;;;16.39;64.12
61742;BME280;47650;49.848;9.620;2022-10-13T08:56:33;100019.53;;;16.24;64.44
61742;BME280;47650;49.848;9.620;2022-10-13T08:59:03;100017.72;;;16.16;65.63
61742;BME280;47650;49.848;9.620;2022-10-13T09:01:31;100026.13;;;15.31;68.40
61742;BME280;47650;49.848;9.620;2022-10-13T09:04:37;100016.25;;;15.97;66.53
61742;BME280;47650;49.848;9.620;2022-10-13T09:09:33;99960.59;;;17.26;61.73
61742;BME280;47650;49.848;9.620;2022-10-13T09:11:58;99983.28;;;17.15;61.57
61742;BME280;47650;49.848;9.620;2022-10-13T09:16:55;100004.00;;;18.27;59.12
61742;BME280;47650;49.848;9.620;2022-10-13T09:19:28;100005.47;;;18.59;57.84
61742;BME280;47650;49.848;9.620;2022-10-13T09:24:39;100018.81;;;15.90;63.82
61742;BME280;47650;49.848;9.620;2022-10-13T09:27:11;99998.25;;;16.39;64.83
61742;BME280;47650;49.848;9.620;2022-10-13T09:29:37;99988.97;;;17.35;62.03
61742;BME280;47650;49.848;9.620;2022-10-13T09:32:20;99993.59;;;18.17;58.67
61742;BME280;47650;49.848;9.620;2022-10-13T09:34:48;99979.22;;;18.91;56.52
61742;BME280;47650;49.848;9.620;2022-10-13T09:37:24;99971.34;;;20.18;52.66
61742;BME280;47650;49.848;9.620;2022-10-13T09:40:21;99963.16;;;21.41;49.25
61742;BME280;47650;49.848;9.620;2022-10-13T09:42:53;99941.44;;;24.73;42.17
61742;BME280;47650;49.848;9.620;2022-10-13T09:45:30;99951.06;;;24.69;39.28
61742;BME280;47650;49.848;9.620;2022-10-13T09:48:05;99952.28;;;24.36;40.38
61742;BME280;47650;49.848;9.620;2022-10-13T09:50:33;99968.31;;;20.89;48.24
61742;BME280;47650;49.848;9.620;2022-10-13T09:55:45;99979.41;;;20.18;51.40
61742;BME280;47650;49.848;9.620;2022-10-13T09:58:27;99984.38;;;19.58;52.63
61742;BME280;47650;49.848;9.620;2022-10-13T10:00:54;99982.91;;;17.94;57.68
61742;BME280;47650;49.848;9.620;2022-10-13T10:03:31;99992.41;;;17.67;57.86
61742;BME280;47650;49.848;9.620;2022-10-13T10:06:07;99993.03;;;17.31;60.23
61742;BME280;47650;49.848;9.620;2022-10-13T10:08:57;99986.75;;;17.77;59.93
61742;BME280;47650;49.848;9.620;2022-10-13T10:11:36;99978.22;;;18.41;57.45
61742;BME280;47650;49.848;9.620;2022-10-13T10:14:26;99973.00;;;19.34;55.32
61742;BME280;47650;49.848;9.620;2022-10-13T10:17:01;99972.47;;;19.73;53.38
61742;BME280;47650;49.848;9.620;2022-10-13T10:19:43;99978.63;;;19.89;54.13
61742;BME280;47650;49.848;9.620;2022-10-13T10:22:14;99977.59;;;18.60;55.90
61742;BME280;47650;49.848;9.620;2022-10-13T10:24:48;99955.25;;;18.23;57.86
61742;BME280;47650;49.848;9.620;2022-10-13T10:27:26;99971.09;;;19.28;55.70
61742;BME280;47650;49.848;9.620;2022-10-13T10:30:15;99964.97;;;19.62;54.16
61742;BME280;47650;49.848;9.620;2022-10-13T10:32:53;99971.88;;;17.74;58.59
61742;BME280;47650;49.848;9.620;2022-10-13T10:38:21;99963.56;;;18.29;57.92
61742;BME280;47650;49.848;9.620;2022-10-13T10:43:59;99960.09;;;20.56;52.22
61742;BME280;47650;49.848;9.620;2022-10-13T10:46:36;99964.25;;;19.04;55.08
61742;BME280;47650;49.848;9.620;2022-10-13T10:52:10;99960.41;;;19.34;54.39
61742;BME280;47650;49.848;9.620;2022-10-13T10:57:52;99948.00;;;19.97;54.36
61742;BME280;47650;49.848;9.620;2022-10-13T11:00:20;99921.72;;;20.40;51.33
61742;BME280;47650;49.848;9.620;2022-10-13T11:03:18;99939.22;;;19.53;53.90
61742;BME280;47650;49.848;9.620;2022-10-13T11:08:43;99937.50;;;18.08;58.54
61742;BME280;47650;49.848;9.620;2022-10-13T11:29:50;99920.25;;;19.61;53.92
61742;BME280;47650;49.848;9.620;2022-10-13T11:43:32;99910.72;;;18.66;56.30
61742;BME280;47650;49.848;9.620;2022-10-13T11:54:18;99865.69;;;20.09;53.38
61742;BME280;47650;49.848;9.620;2022-10-13T11:56:54;99880.63;;;20.18;53.45
61742;BME280;47650;49.848;9.620;2022-10-13T12:01:58;99884.31;;;20.10;53.23
61742;BME280;47650;49.848;9.620;2022-10-13T12:04:26;99869.53;;;20.55;52.56
61742;BME280;47650;49.848;9.620;2022-10-13T12:06:58;99855.72;;;20.71;52.09
61742;BME280;47650;49.848;9.620;2022-10-13T12:09:25;99838.31;;;21.00;51.48
61742;BME280;47650;49.848;9.620;2022-10-13T12:12:13;99832.09;;;21.00;50.74
61742;BME280;47650;49.848;9.620;2022-10-13T12:14:44;99845.38;;;21.08;50.50
61742;BME280;47650;49.848;9.620;2022-10-13T12:17:27;99819.66;;;20.99;50.03
61742;BME280;47650;49.848;9.620;2022-10-13T12:19:54;99855.31;;;20.88;50.98
61742;BME280;47650;49.848;9.620;2022-10-13T12:22:20;99849.50;;;20.84;52.21
61742;BME280;47650;49.848;9.620;2022-10-13T12:25:16;99841.59;;;20.56;54.60
61742;BME280;47650;49.848;9.620;2022-10-13T12:27:47;99826.75;;;19.28;57.37
61742;BME280;47650;49.848;9.620;2022-10-13T12:30:31;99855.09;;;18.81;58.74
61742;BME280;47650;49.848;9.620;2022-10-13T12:33:01;99851.19;;;19.05;59.37
61742;BME280;47650;49.848;9.620;2022-10-13T12:35:30;99846.38;;;18.79;60.02
61742;BME280;47650;49.848;9.620;2022-10-13T12:37:57;99840.34;;;18.92;58.61
61742;BME280;47650;49.848;9.620;2022-10-13T12:40:24;99836.78;;;18.05;60.51
61742;BME280;47650;49.848;9.620;2022-10-13T12:42:51;99830.34;;;18.42;60.98
61742;BME280;47650;49.848;9.620;2022-10-13T12:45:22;99840.09;;;18.29;61.90
61742;BME280;47650;49.848;9.620;2022-10-13T12:47:52;99839.22;;;18.21;62.12
61742;BME280;47650;49.848;9.620;2022-10-13T12:53:00;99832.44;;;17.74;62.13
61742;BME280;47650;49.848;9.620;2022-10-13T12:55:27;99804.34;;;17.70;62.05
61742;BME280;47650;49.848;9.620;2022-10-13T12:57:53;99817.06;;;17.68;63.02
61742;BME280;47650;49.848;9.620;2022-10-13T13:02:55;99826.78;;;17.24;64.77
61742;BME280;47650;49.848;9.620;2022-10-13T13:05:37;99828.03;;;16.99;66.65
61742;BME280;47650;49.848;9.620;2022-10-13T13:08:24;99835.69;;;16.41;68.94
61742;BME280;47650;49.848;9.620;2022-10-13T13:10:54;99829.44;;;16.25;68.25
61742;BME280;47650;49.848;9.620;2022-10-13T13:13:22;99847.47;;;16.54;68.35
61742;BME280;47650;49.848;9.620;2022-10-13T13:15:48;99800.72;;;16.42;68.05
61742;BME280;47650;49.848;9.620;2022-10-13T13:20:53;99827.06;;;16.77;67.85
61742;BME280;47650;49.848;9.620;2022-10-13T13:23:19;99812.84;;;17.59;65.81
61742;BME280;47650;49.848;9.620;2022-10-13T13:25:47;99814.06;;;18.66;63.61
61742;BME280;47650;49.848;9.620;2022-10-13T13:28:28;99805.00;;;20.06;58.74
61742;BME280;47650;49.848;9.620;2022-10-13T13:30:54;99772.56;;;21.80;53.24
61742;BME280;47650;49.848;9.620;2022-10-13T13:33:19;99788.47;;;22.40;51.56
61742;BME280;47650;49.848;9.620;2022-10-13T13:35:44;99784.00;;;22.27;48.33
61742;BME280;47650;49.848;9.620;2022-10-13T13:38:12;99783.34;;;22.25;48.66
61742;BME280;47650;49.848;9.620;2022-10-13T13:40:37;99778.91;;;21.99;49.33
61742;BME280;47650;49.848;9.620;2022-10-13T13:43:03;99775.81;;;21.95;49.72
61742;BME280;47650;49.848;9.620;2022-10-13T13:45:28;99774.78;;;21.96;50.24
61742;BME280;47650;49.848;9.620;2022-10-13T13:47:53;99722.13;;;21.87;50.21
61742;BME280;47650;49.848;9.620;2022-10-13T13:50:22;99776.06;;;22.32;50.25
61742;BME280;47650;49.848;9.620;2022-10-13T13:52:48;99777.63;;;22.47;49.40
61742;BME280;47650;49.848;9.620;2022-10-13T13:55:15;99774.44;;;22.18;48.69
61742;BME280;47650;49.848;9.620;2022-10-13T13:57:49;99779.72;;;21.61;49.23
61742;BME280;47650;49.848;9.620;2022-10-13T14:00:19;99770.41;;;21.50;50.99
61742;BME280;47650;49.848;9.620;2022-10-13T14:02:44;99777.25;;;21.59;50.10
61742;BME280;47650;49.848;9.620;2022-10-13T14:05:10;99744.38;;;20.04;51.55
61742;BME280;47650;49.848;9.620;2022-10-13T14:07:36;99799.00;;;18.71;57.29
61742;BME280;47650;49.848;9.620;2022-10-13T14:10:05;99794.25;;;18.45;58.05
61742;BME280;47650;49.848;9.620;2022-10-13T14:12:31;99789.31;;;18.27;59.17
61742;BME280;47650;49.848;9.620;2022-10-13T14:14:57;99783.81;;;18.14;60.01
61742;BME280;47650;49.848;9.620;2022-10-13T14:17:23;99782.34;;;18.54;59.21
61742;BME280;47650;49.848;9.620;2022-10-13T14:19:48;99767.63;;;17.56;61.89
61742;BME280;47650;49.848;9.620;2022-10-13T14:22:20;99790.28;;;18.19;60.11
61742;BME280;47650;49.848;9.620;2022-10-13T14:24:46;99765.88;;;17.63;61.81
61742;BME280;47650;49.848;9.620;2022-10-13T14:27:12;99773.06;;;17.77;61.85
61742;BME280;47650;49.848;9.620;2022-10-13T14:29:38;99773.69;;;18.31;60.52
61742;BME280;47650;49.848;9.620;2022-10-13T14:32:03;99768.47;;;18.51;59.36
61742;BME280;47650;49.848;9.620;2022-10-13T14:34:29;99765.97;;;18.71;59.49
61742;BME280;47650;49.848;9.620;2022-10-13T14:36:54;99758.47;;;18.88;59.22
61742;BME280;47650;49.848;9.620;2022-10-13T14:39:20;99764.84;;;19.15;58.40